Timeline UpdatesTrip UpdatesNews PostsPvt PostsTravel TipsAdmin PostsConv PostsFollowed PostsChat RequestsBlog PostsPNR Posts

Disclaimer
Search
 
 
Mon Sep 22, 2014 11:44:59 ISTHomeTrainsΣChainsAtlasPNRForumGalleryNewsFAQTripsMembersLoginFeedback
No Recent News for this Train
Other Trains in the News **new
Latest...
.
Tue Sep 17, 2013 (05:07PM)
⇐ Return Journey: Train# 37927

37926/Katwa-Howrah Local

Time-Table HAS CHANGED.
Sep 05 (7:58AM)
Change Departure Station:
Change Arrival Station:
Post a Train Travel TipPost a Train Travel Tip **new
Post a Comment/Question/Picture/VideoPost a Comment/Question/Picture/Video
Pantry/Catering
✕ NO Pantry Car
✕ NO Catering
RSA - Rake Sharing
Rake/Coach Composition
Loco
News    PNR    Forum    Time-Table    Availability    Fare Chart    Map    Arr/Dep History    Trips    Gallery    ΣChains    X/O    Timeline    
Travel Time: 2h 55m    29 halts    Distance: 97 km    Avg Speed: 33 km/hr
Type: EMU - Kolkata
Zone: ER/Eastern
Departs @ 15:53 (Avg 33m late)
Platform# ???
SMTWTFS
Samudra Garh/SMAE 
Arrives @ 18:48 (Avg 17m late)
Platform# ???
SMTWTFS
Kolkata Howrah Junction/HWH 

29 halts. 32 intermediate Stations between Samudra Garh and Kolkata Howrah Junction

Hide intermediate Stations  Show Old Time-Table

#CodeStation NameX/OArrivesAvgDepartsAvgHaltPFDay#KmSpeedElevZoneAddress
1KWAEKatwa Junction (5)  -15:00+8--1-47.45921mERDist - Bardhaman, West Bengal
2DHAEDainhat (4)  15:06 15:07+1315:07 15:08+211m--1-40.5-19mERDaihaat Rd, West Bengal
3SHBASahebtala  15:09-15:10-1m--1-37.14118mERSahebtala, West Bengal
4AGAEAgradwip (2)  15:19 15:14+1715:20 15:15+321m--1-34.49718mERDist - Bardhaman, West Bengal
5PTAEPatuli (2)  15:23 15:18+3015:24 15:19+341m--1-29.510118mERDist - bardhaman, West Bengal
6BQYBelerhat  15:28 15:22-15:29 15:23-1m--1-24.58219mERJajneswarpur, West Bengal
7LKXLakshmipur (2)  15:31 15:25+2915:32 15:26+331m--1-21.89414mERDist - burdhaman, West Bengal
8MTFAMertala Phaleya  15:34 15:28-15:35 15:29-1m--1-18.69016mERMertala Phaleya, West Bengal
9PSAEPurbasthali (2)  15:37 15:31+2415:38 15:32+241m--1-15.67119mERDist - Bardhaman, West Bengal
10BFZBhandartikuri  15:40 15:34+2415:41 15:35+241m--1-13.24521mERDist - Bardhaman, West Bengal
10.1VSPRBishnupriya (1)  15:43 15:40-15:44 15:40-  1-9.8 4515mERDist - nadia, West Bengal
11NDAENabadwip Dham (3)  15:48 15:42+1715:50 15:43+182 1m--1-8.012915mERDist - Nadia, West Bengal
12KLNTKalinagar (1)  16:00 15:45+1916:01 15:46+281m11-3.7379mERDist - Nadia, West Bengal
13SMAESamudra Garh»  16:04 15:52+2916:05 15:53+331m--10.02916mERDist - Bardhaman, West Bengal
13.1NDIMNandaigram Halt  16:08 15:59-16:09 15:59-  12.9 2915mERState Highway 6, West Bengal
14DTAEDhatrigram (4)  16:28 16:07+2016:29 16:08+211m--16.73116mERDhatrigram, West Bengal
15BGRABaghnapara (2)  16:32 16:17+2316:33 16:18+231m--111.33416mERKalna-Memari Rd, West Bengal
16ABKAAmbika Kalna (4)  16:38 16:25+1616:39 16:26+161m--115.38612mERKalna, West Bengal
17GPAEGuptipara  16:44 16:31+2616:45 16:32+261m--122.46814mERGuptipara Railway Station, West Bengal
18BHLABehula  16:47 16:34-16:48 16:35-1m--124.77216mERDist - Hooghly, West Bengal
19SOAESomra Bazar (2)  16:52 16:39-16:53 16:40-1m--129.55613mERState Highway 6, West Bengal
20BGAEBalagarh  16:55 16:43-16:56 16:44-1m--132.39913mERBalagarh, West Bengal
21JITJirat (3)  17:03 16:46+2417:04 16:47+241m--135.67815mERdist - hooghly, West Bengal
22KMAEKhamargachhi  17:07 16:51+2717:08 16:52+271m--140.812014mERKhamargachi, West Bengal
23DMLEDumurdaha  17:10 16:53-17:11 16:54-1m--142.89815mERDumurdahadham, West Bengal
24KJUKuntighat  17:13 16:56-17:14 16:57-1m--146.16717mERKuntighat Railway Station, West Bengal
25TBAETribeni  17:17 17:00+3217:18 17:01+321m--149.47416mERTribeni, West Bengal
26BSAEBansh Baria  17:21 17:04+3017:22 17:05+301m--153.1713mERBansberia, West Bengal
27BDCBandel Junction (7)  17:41+1217:43+132m--157.611714mERdist - HOOGHLY, West Bengal
28HGYHooghly (3)  17:44-17:45-1m--159.55414mERDist - Hooghly, West Bengal
29CNSChuchura (3)  17:47-17:48-1m--161.39015mERDist - HOOGHLY - 712102, West Bengal
30CGRChandan Nagar (3)  17:50+1917:51+191m--164.37116mERDist -HOOGHLY - 712136, West Bengal
31MUUMankundu (3)  17:53-17:54-1m--166.76713mERChandannagar, West Bengal
32BHRBhadreshwar (3)  17:55 17:56+2917:56 17:57+291m--168.911214mERBhadreswar, West Bengal
33BBAEBaidyabati (3)  18:00 17:59-18:01 18:00-1m--172.72313mERBaidyabati, West Bengal
34SHESeoraphuli Junction (6)  18:06+2418:07+241m--175.07613mERBaidyabati, West Bengal
35SRPSerampore (4)  18:09+2918:10+291m--177.56411mERdist - hooghly, West Bengal
36RISRishra (3)  18:13-18:14-1m--180.73511mERRishra, West Bengal
37KOGKonnagar (3)  18:18 18:19+2518:19 18:20+251m--183.710910mERDist: Howrah, West Bengal
38HMZHind Motor (3)  18:20 18:21-18:21 18:22-1m--185.5549mERHindmotor, West Bengal
39UPAUttarpara (3)  18:23 18:24+018:24 18:25+01m--187.3819mERDist - Hooghly, West Bengal
40BLYBally (6)  18:25 18:26+018:26 18:27+01m--188.6618mERDist - Howrah, West Bengal
41BEQBelur (5)  18:27 18:29+3118:28 18:30+311m--190.6338mERHowrah, West Bengal
42LLHLiluah (5)  18:30 18:33+3118:31 18:34+311m--192.31910mERHowrah, West Bengal
42.1SYAELiluah Sorting  18:38-18:38-  193.5 195mERLiluah Sorting, West Bengal
42.2HWHGHowrah Goods Cabin  18:45-18:45-  195.8 196mERHowrah, West Bengal
43HWHKolkata Howrah Junction (23)•  18:48+17---196.8-10mERHowrah 711101, West Bengal
Scroll to Top
Scroll to Bottom